Vingaren — OZ2131 — position and weather

sailwx.info

Track history (hours):
 
Tides and Currents Weather Stations Pressure Air Temp Water Temp Dewpoint Dewpoint Depression Visibility Wind Speed Wind Dir Waves Ship Positions

Vingaren

Last reported at 2014-Oct-21 16:33 UTC. Time now 2014-Oct-21 16:45 UTC.
Position N 52°38' E 003°36'.

Length 89 m; draft 5.9 m.

Type: Cargo ship. MMSI: 231844000.

Date/timePositionNaut miles runAvg speedWind from/ knotsBaromVisibWave heightAir tempDewpointWater temp
2014-Oct-21 16:33N 52°38' E 003°36'3 3.1
2014-Oct-21 15:33N 52°39' E 003°41'63 4.9
2014-Oct-21 02:33N 53°30' E 004°44'7 6.7
2014-Oct-21 01:33N 53°32' E 004°54'7 7.5
2014-Oct-21 00:33N 53°35' E 005°06'8 8.0
2014-Oct-20 23:33N 53°38' E 005°19'8 8.0
2014-Oct-20 22:33N 53°40' E 005°31'8 8.0
2014-Oct-20 21:33N 53°42' E 005°44'7 7.5
2014-Oct-20 20:33N 53°45' E 005°56'7 7.1
2014-Oct-20 19:31N 53°47' E 006°08'7 6.4
2014-Oct-20 18:25N 53°49' E 006°20'41 6.8
2014-Oct-20 12:20N 53°60' E 007°27'6 7.6
2014-Oct-20 11:33N 54°01' E 007°37'7 7.3
2014-Oct-20 10:33N 54°02' E 007°49'7 6.7
2014-Oct-20 09:33N 54°01' E 008°01'6 6.2
2014-Oct-20 08:33N 54°01' E 008°12'6 6.5
2014-Oct-20 07:33N 53°60' E 008°22'7 6.7
2014-Oct-20 06:34N 53°58' E 008°33'8 7.5
2014-Oct-20 05:34N 53°53' E 008°43'9 9.3
2014-Oct-20 04:33N 53°51' E 008°58'7 6.8
2014-Oct-20 03:33N 53°54' E 009°09'7 6.5
2014-Oct-20 02:33N 53°59' E 009°16'15 7.7
2014-Oct-20 00:34N 54°11' E 009°31'7 4.8
2014-Oct-19 23:07N 54°17' E 009°38'7 7.5
2014-Oct-19 22:08N 54°22' E 009°47'5 8.3
2014-Oct-19 21:33N 54°21' E 009°55'3 3.2
2014-Oct-19 20:33N 54°21' E 010°01'4 4.5
2014-Oct-19 19:33N 54°22' E 010°08'1 0.8
2014-Oct-19 18:34N 54°22' E 010°10'7 6.7
2014-Oct-19 17:34N 54°28' E 010°15'9 8.6
2014-Oct-19 16:33N 54°32' E 010°28'36 8.8
2014-Oct-19 12:25N 54°31' E 011°31'9 9.3
2014-Oct-19 11:27N 54°27' E 011°45'8 8.9
2014-Oct-19 10:34N 54°27' E 011°59'8 7.9
2014-Oct-19 09:32N 54°30' E 012°11'26 8.7
2014-Oct-19 06:32N 54°48' E 012°45'45 8.9
2014-Oct-19 01:31N 55°03' E 013°58'44 8.7
2014-Oct-18 20:24N 55°33' E 014°55'22 9.4
2014-Oct-18 18:04N 55°44' E 015°29'8 9.7
2014-Oct-18 17:17N 55°48' E 015°41'7 9.6
2014-Oct-18 16:33N 55°51' E 015°51'10 9.7
2014-Oct-18 15:33N 55°56' E 016°06'10 9.7
2014-Oct-18 14:33N 56°01' E 016°21'162 9.0
2014-Oct-17 20:29N 58°41' E 017°13'2 0.1
2014-Oct-15 23:16N 58°41' E 017°09'  
Track history (hours):
 
Tides and Currents Weather Stations Pressure Air Temp Water Temp Dewpoint Dewpoint Depression Visibility Wind Speed Wind Dir Waves Ship Positions

Vingaren

Last reported at 2014-Oct-21 16:33 UTC. Time now 2014-Oct-21 16:45 UTC.
Position N 52°38' E 003°36'.

Length 89 m; draft 5.9 m.

Type: Cargo ship. MMSI: 231844000.

Date/timePositionNaut miles runAvg speedWind from/ knotsBaromVisibWave heightAir tempDewpointWater temp
2014-Oct-21 16:33N 52°38' E 003°36'3 3.1
2014-Oct-21 15:33N 52°39' E 003°41'63 4.9
2014-Oct-21 02:33N 53°30' E 004°44'7 6.7
2014-Oct-21 01:33N 53°32' E 004°54'7 7.5
2014-Oct-21 00:33N 53°35' E 005°06'8 8.0
2014-Oct-20 23:33N 53°38' E 005°19'8 8.0
2014-Oct-20 22:33N 53°40' E 005°31'8 8.0
2014-Oct-20 21:33N 53°42' E 005°44'7 7.5
2014-Oct-20 20:33N 53°45' E 005°56'7 7.1
2014-Oct-20 19:31N 53°47' E 006°08'7 6.4
2014-Oct-20 18:25N 53°49' E 006°20'41 6.8
2014-Oct-20 12:20N 53°60' E 007°27'6 7.6
2014-Oct-20 11:33N 54°01' E 007°37'7 7.3
2014-Oct-20 10:33N 54°02' E 007°49'7 6.7
2014-Oct-20 09:33N 54°01' E 008°01'6 6.2
2014-Oct-20 08:33N 54°01' E 008°12'6 6.5
2014-Oct-20 07:33N 53°60' E 008°22'7 6.7
2014-Oct-20 06:34N 53°58' E 008°33'8 7.5
2014-Oct-20 05:34N 53°53' E 008°43'9 9.3
2014-Oct-20 04:33N 53°51' E 008°58'7 6.8
2014-Oct-20 03:33N 53°54' E 009°09'7 6.5
2014-Oct-20 02:33N 53°59' E 009°16'15 7.7
2014-Oct-20 00:34N 54°11' E 009°31'7 4.8
2014-Oct-19 23:07N 54°17' E 009°38'7 7.5
2014-Oct-19 22:08N 54°22' E 009°47'5 8.3
2014-Oct-19 21:33N 54°21' E 009°55'3 3.2
2014-Oct-19 20:33N 54°21' E 010°01'4 4.5
2014-Oct-19 19:33N 54°22' E 010°08'1 0.8
2014-Oct-19 18:34N 54°22' E 010°10'7 6.7
2014-Oct-19 17:34N 54°28' E 010°15'9 8.6
2014-Oct-19 16:33N 54°32' E 010°28'36 8.8
2014-Oct-19 12:25N 54°31' E 011°31'9 9.3
2014-Oct-19 11:27N 54°27' E 011°45'8 8.9
2014-Oct-19 10:34N 54°27' E 011°59'8 7.9
2014-Oct-19 09:32N 54°30' E 012°11'26 8.7
2014-Oct-19 06:32N 54°48' E 012°45'45 8.9
2014-Oct-19 01:31N 55°03' E 013°58'44 8.7
2014-Oct-18 20:24N 55°33' E 014°55'22 9.4
2014-Oct-18 18:04N 55°44' E 015°29'8 9.7
2014-Oct-18 17:17N 55°48' E 015°41'7 9.6
2014-Oct-18 16:33N 55°51' E 015°51'10 9.7
2014-Oct-18 15:33N 55°56' E 016°06'10 9.7
2014-Oct-18 14:33N 56°01' E 016°21'162 9.0
2014-Oct-17 20:29N 58°41' E 017°13'2 0.1
2014-Oct-15 23:16N 58°41' E 017°09'  

Dump ship's entire track history